sensor_id;sensor_type;location;lat;lon;timestamp;pressure;altitude;pressure_sealevel;temperature;humidity
37486;BME280;23341;50.296;18.960;2023-04-25T00:01:09;52049.69;;;-144.43;100.00
37486;BME280;23341;50.296;18.960;2023-04-25T00:06:17;52063.69;;;-144.43;100.00
37486;BME280;23341;50.296;18.960;2023-04-25T00:11:21;52033.69;;;-144.43;100.00
37486;BME280;23341;50.296;18.960;2023-04-25T00:16:26;52085.69;;;-144.43;100.00
37486;BME280;23341;50.296;18.960;2023-04-25T00:21:33;52077.69;;;-144.43;100.00
37486;BME280;23341;50.296;18.960;2023-04-25T00:26:38;52055.69;;;-144.43;100.00
37486;BME280;23341;50.296;18.960;2023-04-25T00:31:42;52085.69;;;-144.43;100.00
37486;BME280;23341;50.296;18.960;2023-04-25T00:36:49;52113.69;;;-144.43;100.00
37486;BME280;23341;50.296;18.960;2023-04-25T00:41:54;52095.69;;;-144.43;100.00
37486;BME280;23341;50.296;18.960;2023-04-25T00:46:59;52099.69;;;-144.43;100.00
37486;BME280;23341;50.296;18.960;2023-04-25T00:52:06;52105.69;;;-144.43;100.00
37486;BME280;23341;50.296;18.960;2023-04-25T00:57:11;52101.69;;;-144.43;100.00
37486;BME280;23341;50.296;18.960;2023-04-25T01:02:16;52081.69;;;-144.43;100.00
37486;BME280;23341;50.296;18.960;2023-04-25T01:07:22;52067.69;;;-144.43;100.00
37486;BME280;23341;50.296;18.960;2023-04-25T01:12:27;52007.69;;;-144.43;100.00
37486;BME280;23341;50.296;18.960;2023-04-25T01:17:31;52037.69;;;-144.43;100.00
37486;BME280;23341;50.296;18.960;2023-04-25T01:22:39;52047.69;;;-144.43;100.00
37486;BME280;23341;50.296;18.960;2023-04-25T01:27:44;52039.69;;;-144.43;100.00
37486;BME280;23341;50.296;18.960;2023-04-25T01:32:49;52037.69;;;-144.43;100.00
37486;BME280;23341;50.296;18.960;2023-04-25T01:37:55;52003.69;;;-144.43;100.00
37486;BME280;23341;50.296;18.960;2023-04-25T01:42:59;51971.69;;;-144.43;100.00
37486;BME280;23341;50.296;18.960;2023-04-25T01:48:05;51989.69;;;-144.43;100.00
37486;BME280;23341;50.296;18.960;2023-04-25T01:53:13;51933.69;;;-144.43;100.00
37486;BME280;23341;50.296;18.960;2023-04-25T01:58:19;51887.72;;;-144.43;100.00
37486;BME280;23341;50.296;18.960;2023-04-25T02:03:46;51837.72;;;-144.43;100.00
37486;BME280;23341;50.296;18.960;2023-04-25T02:09:10;51795.72;;;-144.43;100.00
37486;BME280;23341;50.296;18.960;2023-04-25T02:14:20;51787.72;;;-144.43;100.00
37486;BME280;23341;50.296;18.960;2023-04-25T02:19:43;51829.72;;;-144.43;100.00
37486;BME280;23341;50.296;18.960;2023-04-25T02:24:49;51805.72;;;-144.43;100.00
37486;BME280;23341;50.296;18.960;2023-04-25T02:29:54;51825.72;;;-144.43;100.00
37486;BME280;23341;50.296;18.960;2023-04-25T02:35:01;51759.72;;;-144.43;100.00
37486;BME280;23341;50.296;18.960;2023-04-25T02:40:09;51775.72;;;-144.43;100.00
37486;BME280;23341;50.296;18.960;2023-04-25T02:45:14;51785.72;;;-144.43;100.00
37486;BME280;23341;50.296;18.960;2023-04-25T02:50:19;51809.72;;;-144.43;100.00
37486;BME280;23341;50.296;18.960;2023-04-25T02:55:25;51725.72;;;-144.43;100.00
37486;BME280;23341;50.296;18.960;2023-04-25T03:00:31;51731.72;;;-144.43;100.00
37486;BME280;23341;50.296;18.960;2023-04-25T03:05:36;51673.72;;;-144.43;100.00
37486;BME280;23341;50.296;18.960;2023-04-25T03:10:42;51669.72;;;-144.43;100.00
37486;BME280;23341;50.296;18.960;2023-04-25T03:15:48;51647.72;;;-144.43;100.00
37486;BME280;23341;50.296;18.960;2023-04-25T03:20:54;51667.72;;;-144.43;100.00
37486;BME280;23341;50.296;18.960;2023-04-25T03:26:00;51631.72;;;-144.43;100.00
37486;BME280;23341;50.296;18.960;2023-04-25T03:31:04;51615.72;;;-144.43;100.00
37486;BME280;23341;50.296;18.960;2023-04-25T03:36:09;51575.72;;;-144.43;100.00
37486;BME280;23341;50.296;18.960;2023-04-25T03:41:15;51577.72;;;-144.43;100.00
37486;BME280;23341;50.296;18.960;2023-04-25T03:46:30;51561.72;;;-144.43;100.00
37486;BME280;23341;50.296;18.960;2023-04-25T03:51:35;51507.75;;;-144.43;100.00
37486;BME280;23341;50.296;18.960;2023-04-25T03:56:41;51509.75;;;-144.43;100.00
37486;BME280;23341;50.296;18.960;2023-04-25T04:01:53;51435.75;;;-144.43;100.00
37486;BME280;23341;50.296;18.960;2023-04-25T04:06:58;51427.75;;;-144.43;100.00
37486;BME280;23341;50.296;18.960;2023-04-25T04:12:08;51423.75;;;-144.43;100.00
37486;BME280;23341;50.296;18.960;2023-04-25T04:17:15;51385.75;;;-144.43;100.00
37486;BME280;23341;50.296;18.960;2023-04-25T04:22:20;51353.75;;;-144.43;100.00
37486;BME280;23341;50.296;18.960;2023-04-25T04:27:27;51373.75;;;-144.43;100.00
37486;BME280;23341;50.296;18.960;2023-04-25T04:32:50;51369.75;;;-144.43;100.00
37486;BME280;23341;50.296;18.960;2023-04-25T04:37:56;51325.78;;;-144.43;100.00
37486;BME280;23341;50.296;18.960;2023-04-25T04:43:05;51311.78;;;-144.43;100.00
37486;BME280;23341;50.296;18.960;2023-04-25T04:48:30;51329.78;;;-144.43;100.00
37486;BME280;23341;50.296;18.960;2023-04-25T04:53:58;51239.78;;;-144.43;100.00
37486;BME280;23341;50.296;18.960;2023-04-25T04:59:19;51317.78;;;-144.43;100.00
37486;BME280;23341;50.296;18.960;2023-04-25T05:04:42;51289.78;;;-144.43;100.00
37486;BME280;23341;50.296;18.960;2023-04-25T05:10:07;51317.78;;;-144.43;100.00
37486;BME280;23341;50.296;18.960;2023-04-25T05:15:13;51247.78;;;-144.43;99.49
37486;BME280;23341;50.296;18.960;2023-04-25T05:20:33;51237.78;;;-144.43;99.21
37486;BME280;23341;50.296;18.960;2023-04-25T05:26:10;51229.78;;;-144.43;98.73
37486;BME280;23341;50.296;18.960;2023-04-25T05:31:29;51191.78;;;-144.43;97.09
37486;BME280;23341;50.296;18.960;2023-04-25T05:36:42;51185.81;;;-144.43;96.81
37486;BME280;23341;50.296;18.960;2023-04-25T05:41:46;51187.81;;;-144.43;96.12
37486;BME280;23341;50.296;18.960;2023-04-25T05:47:15;51213.78;;;-144.43;96.89
37486;BME280;23341;50.296;18.960;2023-04-25T05:52:34;51185.81;;;-144.43;93.91
37486;BME280;23341;50.296;18.960;2023-04-25T05:57:43;51225.78;;;-144.43;94.92
37486;BME280;23341;50.296;18.960;2023-04-25T06:02:50;51129.81;;;-144.43;92.53
37486;BME280;23341;50.296;18.960;2023-04-25T06:07:55;51079.81;;;-144.43;92.30
37486;BME280;23341;50.296;18.960;2023-04-25T06:13:00;51069.81;;;-144.43;90.69
37486;BME280;23341;50.296;18.960;2023-04-25T06:18:06;51101.81;;;-144.43;92.52
37486;BME280;23341;50.296;18.960;2023-04-25T06:23:11;51079.81;;;-144.43;90.46
37486;BME280;23341;50.296;18.960;2023-04-25T06:28:23;51065.81;;;-144.43;90.76
37486;BME280;23341;50.296;18.960;2023-04-25T06:33:29;51069.81;;;-144.43;90.48
37486;BME280;23341;50.296;18.960;2023-04-25T06:38:35;51057.84;;;-144.43;90.58
37486;BME280;23341;50.296;18.960;2023-04-25T06:43:40;51101.81;;;-144.43;89.86
37486;BME280;23341;50.296;18.960;2023-04-25T06:55:26;51071.81;;;-144.43;87.10
37486;BME280;23341;50.296;18.960;2023-04-25T07:01:17;51049.84;;;-144.43;86.91
37486;BME280;23341;50.296;18.960;2023-04-25T07:06:21;51051.84;;;-144.43;86.67
37486;BME280;23341;50.296;18.960;2023-04-25T07:17:12;51065.81;;;-144.43;87.44
37486;BME280;23341;50.296;18.960;2023-04-25T07:22:17;51061.81;;;-144.43;85.07
37486;BME280;23341;50.296;18.960;2023-04-25T07:27:21;51003.84;;;-144.43;83.93
37486;BME280;23341;50.296;18.960;2023-04-25T07:38:14;50969.84;;;-144.43;82.77
37486;BME280;23341;50.296;18.960;2023-04-25T07:43:19;50953.84;;;-144.43;83.43
37486;BME280;23341;50.296;18.960;2023-04-25T07:48:59;50901.88;;;-144.43;81.70
37486;BME280;23341;50.296;18.960;2023-04-25T08:01:39;50915.88;;;-144.43;79.59
37486;BME280;23341;50.296;18.960;2023-04-25T08:06:46;50947.84;;;-144.43;78.83
37486;BME280;23341;50.296;18.960;2023-04-25T08:11:57;50923.88;;;-144.43;76.90
37486;BME280;23341;50.296;18.960;2023-04-25T08:18:16;51089.81;;;-144.43;65.69
37486;BME280;23341;50.296;18.960;2023-04-25T08:24:37;51233.78;;;-144.43;60.09
37486;BME280;23341;50.296;18.960;2023-04-25T08:29:44;51279.78;;;-144.43;57.67
37486;BME280;23341;50.296;18.960;2023-04-25T08:34:51;51323.78;;;-144.43;52.94
37486;BME280;23341;50.296;18.960;2023-04-25T08:47:33;50921.88;;;-144.43;52.96
37486;BME280;23341;50.296;18.960;2023-04-25T08:52:44;50907.88;;;-144.43;51.58
37486;BME280;23341;50.296;18.960;2023-04-25T08:57:49;50925.88;;;-144.43;51.01
37486;BME280;23341;50.296;18.960;2023-04-25T09:08:50;50689.94;;;-144.43;55.80
37486;BME280;23341;50.296;18.960;2023-04-25T09:14:10;50629.97;;;-144.43;55.27
37486;BME280;23341;50.296;18.960;2023-04-25T09:25:21;50831.91;;;-144.43;54.36
37486;BME280;23341;50.296;18.960;2023-04-25T09:30:29;50819.91;;;-144.43;50.04
37486;BME280;23341;50.296;18.960;2023-04-25T09:35:54;50797.91;;;-144.43;51.18
37486;BME280;23341;50.296;18.960;2023-04-25T09:42:03;50835.91;;;-144.43;51.69
37486;BME280;23341;50.296;18.960;2023-04-25T09:54:44;50617.97;;;-144.43;50.47
37486;BME280;23341;50.296;18.960;2023-04-25T09:59:54;50753.91;;;-144.43;49.90
37486;BME280;23341;50.296;18.960;2023-04-25T10:05:07;50717.94;;;-144.43;50.86
37486;BME280;23341;50.296;18.960;2023-04-25T10:17:48;50763.91;;;-144.43;47.22
37486;BME280;23341;50.296;18.960;2023-04-25T10:22:55;50821.91;;;-144.43;47.47
37486;BME280;23341;50.296;18.960;2023-04-25T10:33:34;50617.97;;;-144.43;47.76
37486;BME280;23341;50.296;18.960;2023-04-25T10:38:39;50546.00;;;-144.43;48.86
37486;BME280;23341;50.296;18.960;2023-04-25T10:49:45;50647.97;;;-144.43;48.22
37486;BME280;23341;50.296;18.960;2023-04-25T10:54:52;50599.97;;;-144.43;48.71
37486;BME280;23341;50.296;18.960;2023-04-25T11:06:34;50552.00;;;-144.43;48.38
37486;BME280;23341;50.296;18.960;2023-04-25T11:17:25;50464.03;;;-144.43;48.40
37486;BME280;23341;50.296;18.960;2023-04-25T11:22:32;50522.00;;;-144.43;48.65
37486;BME280;23341;50.296;18.960;2023-04-25T11:28:06;50560.00;;;-144.43;46.88
37486;BME280;23341;50.296;18.960;2023-04-25T11:39:03;50498.00;;;-144.43;47.91
37486;BME280;23341;50.296;18.960;2023-04-25T11:44:08;50462.03;;;-144.43;50.10
37486;BME280;23341;50.296;18.960;2023-04-25T11:49:14;50420.03;;;-144.43;49.04
37486;BME280;23341;50.296;18.960;2023-04-25T12:00:13;50364.06;;;-144.43;50.04
37486;BME280;23341;50.296;18.960;2023-04-25T12:10:45;50424.03;;;-144.43;52.82
37486;BME280;23341;50.296;18.960;2023-04-25T12:15:54;50370.06;;;-144.43;51.33
37486;BME280;23341;50.296;18.960;2023-04-25T12:27:45;50436.03;;;-144.43;52.66
37486;BME280;23341;50.296;18.960;2023-04-25T12:32:51;50458.03;;;-144.43;52.05
37486;BME280;23341;50.296;18.960;2023-04-25T12:37:55;50484.03;;;-144.43;51.29
37486;BME280;23341;50.296;18.960;2023-04-25T12:54:42;50478.03;;;-144.43;50.12
37486;BME280;23341;50.296;18.960;2023-04-25T13:06:02;50585.97;;;-144.43;49.91
37486;BME280;23341;50.296;18.960;2023-04-25T13:11:08;50530.00;;;-144.43;50.69
37486;BME280;23341;50.296;18.960;2023-04-25T13:24:33;50552.00;;;-144.43;49.14
37486;BME280;23341;50.296;18.960;2023-04-25T13:29:38;50536.00;;;-144.43;48.04
37486;BME280;23341;50.296;18.960;2023-04-25T13:34:45;50500.00;;;-144.43;47.93
37486;BME280;23341;50.296;18.960;2023-04-25T13:41:28;50436.03;;;-144.43;49.26
37486;BME280;23341;50.296;18.960;2023-04-25T13:46:32;50446.03;;;-144.43;50.27
37486;BME280;23341;50.296;18.960;2023-04-25T13:51:48;50390.06;;;-144.43;50.46
37486;BME280;23341;50.296;18.960;2023-04-25T13:56:54;50362.06;;;-144.43;51.01
37486;BME280;23341;50.296;18.960;2023-04-25T14:02:02;50402.06;;;-144.43;50.52
37486;BME280;23341;50.296;18.960;2023-04-25T14:07:06;50454.03;;;-144.43;50.71
37486;BME280;23341;50.296;18.960;2023-04-25T14:12:12;50454.03;;;-144.43;50.62
37486;BME280;23341;50.296;18.960;2023-04-25T14:17:17;50621.97;;;-144.43;48.41
37486;BME280;23341;50.296;18.960;2023-04-25T14:22:21;50779.91;;;-144.43;47.78
37486;BME280;23341;50.296;18.960;2023-04-25T14:27:27;50867.88;;;-144.43;44.10
37486;BME280;23341;50.296;18.960;2023-04-25T14:32:31;50745.91;;;-144.43;45.41
37486;BME280;23341;50.296;18.960;2023-04-25T14:37:36;50673.94;;;-144.43;46.01
37486;BME280;23341;50.296;18.960;2023-04-25T14:42:42;50623.97;;;-144.43;46.43
37486;BME280;23341;50.296;18.960;2023-04-25T14:47:47;50627.97;;;-144.43;48.51
37486;BME280;23341;50.296;18.960;2023-04-25T14:52:51;50837.91;;;-144.43;44.88
37486;BME280;23341;50.296;18.960;2023-04-25T14:57:56;50855.88;;;-144.43;42.98
37486;BME280;23341;50.296;18.960;2023-04-25T15:03:01;50851.88;;;-144.43;43.62
37486;BME280;23341;50.296;18.960;2023-04-25T15:08:05;50801.91;;;-144.43;44.09
37486;BME280;23341;50.296;18.960;2023-04-25T15:13:11;50573.97;;;-144.43;47.92
37486;BME280;23341;50.296;18.960;2023-04-25T15:18:16;50464.03;;;-144.43;49.12
37486;BME280;23341;50.296;18.960;2023-04-25T15:23:21;50338.06;;;-144.43;51.12
37486;BME280;23341;50.296;18.960;2023-04-25T15:28:27;50370.06;;;-144.43;52.04
37486;BME280;23341;50.296;18.960;2023-04-25T15:33:31;50364.06;;;-144.43;53.24
37486;BME280;23341;50.296;18.960;2023-04-25T15:38:36;50508.00;;;-144.43;50.74
37486;BME280;23341;50.296;18.960;2023-04-25T15:43:42;50512.00;;;-144.43;49.78
37486;BME280;23341;50.296;18.960;2023-04-25T15:48:46;50444.03;;;-144.43;50.67
37486;BME280;23341;50.296;18.960;2023-04-25T15:53:54;50434.03;;;-144.43;51.41
37486;BME280;23341;50.296;18.960;2023-04-25T15:59:00;50488.00;;;-144.43;50.71
37486;BME280;23341;50.296;18.960;2023-04-25T16:04:05;50524.00;;;-144.43;49.18
37486;BME280;23341;50.296;18.960;2023-04-25T16:09:10;50406.06;;;-144.43;49.40
37486;BME280;23341;50.296;18.960;2023-04-25T16:14:16;50410.03;;;-144.43;50.21
37486;BME280;23341;50.296;18.960;2023-04-25T16:19:24;50356.06;;;-144.43;49.28
37486;BME280;23341;50.296;18.960;2023-04-25T16:24:29;50350.06;;;-144.43;49.01
37486;BME280;23341;50.296;18.960;2023-04-25T16:29:35;50316.09;;;-144.43;50.09
37486;BME280;23341;50.296;18.960;2023-04-25T16:34:40;50366.06;;;-144.43;49.76
37486;BME280;23341;50.296;18.960;2023-04-25T16:39:47;50276.09;;;-144.43;49.44
37486;BME280;23341;50.296;18.960;2023-04-25T16:44:53;50262.13;;;-144.43;51.01
37486;BME280;23341;50.296;18.960;2023-04-25T16:49:58;50274.09;;;-144.43;51.40
37486;BME280;23341;50.296;18.960;2023-04-25T16:55:03;50262.13;;;-144.43;51.27
37486;BME280;23341;50.296;18.960;2023-04-25T17:00:11;50208.13;;;-144.43;50.08
37486;BME280;23341;50.296;18.960;2023-04-25T17:05:15;50170.16;;;-144.43;51.55
37486;BME280;23341;50.296;18.960;2023-04-25T17:10:20;50126.19;;;-144.43;52.33
37486;BME280;23341;50.296;18.960;2023-04-25T17:15:26;50086.19;;;-144.43;53.23
37486;BME280;23341;50.296;18.960;2023-04-25T17:20:30;50114.19;;;-144.43;53.51
37486;BME280;23341;50.296;18.960;2023-04-25T17:25:35;50080.19;;;-144.43;54.35
37486;BME280;23341;50.296;18.960;2023-04-25T17:30:41;50072.19;;;-144.43;55.14
37486;BME280;23341;50.296;18.960;2023-04-25T17:35:46;50088.19;;;-144.43;55.36
37486;BME280;23341;50.296;18.960;2023-04-25T17:40:50;50052.22;;;-144.43;55.90
37486;BME280;23341;50.296;18.960;2023-04-25T17:45:56;50034.22;;;-144.43;56.71
37486;BME280;23341;50.296;18.960;2023-04-25T17:51:00;50042.22;;;-144.43;57.77
37486;BME280;23341;50.296;18.960;2023-04-25T17:56:06;50014.22;;;-144.43;58.83
37486;BME280;23341;50.296;18.960;2023-04-25T18:01:29;49994.25;;;-144.43;59.33
37486;BME280;23341;50.296;18.960;2023-04-25T18:06:33;50006.25;;;-144.43;58.41
37486;BME280;23341;50.296;18.960;2023-04-25T18:11:38;49944.28;;;-144.43;59.07
37486;BME280;23341;50.296;18.960;2023-04-25T18:16:45;49984.25;;;-144.43;59.81
37486;BME280;23341;50.296;18.960;2023-04-25T18:21:51;49952.25;;;-144.43;60.71
37486;BME280;23341;50.296;18.960;2023-04-25T18:26:56;49930.28;;;-144.43;62.30
37486;BME280;23341;50.296;18.960;2023-04-25T18:32:04;49912.28;;;-144.43;62.81
37486;BME280;23341;50.296;18.960;2023-04-25T18:37:09;49950.25;;;-144.43;62.95
37486;BME280;23341;50.296;18.960;2023-04-25T18:42:16;49978.25;;;-144.43;62.36
37486;BME280;23341;50.296;18.960;2023-04-25T18:47:22;49974.25;;;-144.43;61.81
37486;BME280;23341;50.296;18.960;2023-04-25T18:52:26;50016.22;;;-144.43;61.98
37486;BME280;23341;50.296;18.960;2023-04-25T18:57:30;50000.25;;;-144.43;62.37
37486;BME280;23341;50.296;18.960;2023-04-25T19:02:36;49960.25;;;-144.43;63.33
37486;BME280;23341;50.296;18.960;2023-04-25T19:07:41;49968.25;;;-144.43;63.03
37486;BME280;23341;50.296;18.960;2023-04-25T19:12:46;49956.25;;;-144.43;64.19
37486;BME280;23341;50.296;18.960;2023-04-25T19:17:53;49966.25;;;-144.43;65.46
37486;BME280;23341;50.296;18.960;2023-04-25T19:22:58;50008.25;;;-144.43;65.24
37486;BME280;23341;50.296;18.960;2023-04-25T19:28:02;50014.22;;;-144.43;64.29
37486;BME280;23341;50.296;18.960;2023-04-25T19:33:08;50000.25;;;-144.43;64.07
37486;BME280;23341;50.296;18.960;2023-04-25T19:38:12;50020.22;;;-144.43;63.54
37486;BME280;23341;50.296;18.960;2023-04-25T19:43:18;50016.22;;;-144.43;64.53
37486;BME280;23341;50.296;18.960;2023-04-25T19:48:24;49982.25;;;-144.43;64.84
37486;BME280;23341;50.296;18.960;2023-04-25T19:53:28;50002.25;;;-144.43;65.01
37486;BME280;23341;50.296;18.960;2023-04-25T19:58:32;49966.25;;;-144.43;67.27
37486;BME280;23341;50.296;18.960;2023-04-25T20:03:38;49986.25;;;-144.43;68.78
37486;BME280;23341;50.296;18.960;2023-04-25T20:08:42;49962.25;;;-144.43;70.43
37486;BME280;23341;50.296;18.960;2023-04-25T20:13:48;49938.28;;;-144.43;72.82
37486;BME280;23341;50.296;18.960;2023-04-25T20:18:55;49912.28;;;-144.43;72.29
37486;BME280;23341;50.296;18.960;2023-04-25T20:24:00;49986.25;;;-144.43;73.15
37486;BME280;23341;50.296;18.960;2023-04-25T20:29:04;49966.25;;;-144.43;73.37
37486;BME280;23341;50.296;18.960;2023-04-25T20:34:10;49958.25;;;-144.43;73.63
37486;BME280;23341;50.296;18.960;2023-04-25T20:39:15;49948.28;;;-144.43;73.85
37486;BME280;23341;50.296;18.960;2023-04-25T20:44:19;49942.28;;;-144.43;75.54
37486;BME280;23341;50.296;18.960;2023-04-25T20:49:26;49926.28;;;-144.43;77.09
37486;BME280;23341;50.296;18.960;2023-04-25T20:54:31;49988.25;;;-144.43;77.14
37486;BME280;23341;50.296;18.960;2023-04-25T20:59:35;50024.22;;;-144.43;77.10
37486;BME280;23341;50.296;18.960;2023-04-25T21:04:41;50034.22;;;-144.43;77.09
37486;BME280;23341;50.296;18.960;2023-04-25T21:09:46;49994.25;;;-144.43;77.19
37486;BME280;23341;50.296;18.960;2023-04-25T21:14:50;50016.22;;;-144.43;77.65
37486;BME280;23341;50.296;18.960;2023-04-25T21:19:56;49994.25;;;-144.43;76.18
37486;BME280;23341;50.296;18.960;2023-04-25T21:25:00;50020.22;;;-144.43;75.71
37486;BME280;23341;50.296;18.960;2023-04-25T21:30:09;50000.25;;;-144.43;74.95
37486;BME280;23341;50.296;18.960;2023-04-25T21:35:14;50038.22;;;-144.43;74.78
37486;BME280;23341;50.296;18.960;2023-04-25T21:40:19;49978.25;;;-144.43;76.21
37486;BME280;23341;50.296;18.960;2023-04-25T21:45:24;50010.22;;;-144.43;75.21
37486;BME280;23341;50.296;18.960;2023-04-25T21:50:29;50006.25;;;-144.43;75.67
37486;BME280;23341;50.296;18.960;2023-04-25T21:55:34;50002.25;;;-144.43;76.36
37486;BME280;23341;50.296;18.960;2023-04-25T22:00:38;49990.25;;;-144.43;76.44
37486;BME280;23341;50.296;18.960;2023-04-25T22:05:44;49982.25;;;-144.43;78.07
37486;BME280;23341;50.296;18.960;2023-04-25T22:10:52;49982.25;;;-144.43;78.78
37486;BME280;23341;50.296;18.960;2023-04-25T22:15:57;50014.22;;;-144.43;77.54
37486;BME280;23341;50.296;18.960;2023-04-25T22:21:03;50018.22;;;-144.43;78.65
37486;BME280;23341;50.296;18.960;2023-04-25T22:26:07;50018.22;;;-144.43;78.38
37486;BME280;23341;50.296;18.960;2023-04-25T22:31:12;49998.25;;;-144.43;76.92
37486;BME280;23341;50.296;18.960;2023-04-25T22:36:18;49958.25;;;-144.43;76.68
37486;BME280;23341;50.296;18.960;2023-04-25T22:41:25;50012.22;;;-144.43;75.98
37486;BME280;23341;50.296;18.960;2023-04-25T22:46:29;50004.25;;;-144.43;77.34
37486;BME280;23341;50.296;18.960;2023-04-25T22:51:36;50018.22;;;-144.43;78.82
37486;BME280;23341;50.296;18.960;2023-04-25T22:56:40;50022.22;;;-144.43;80.83
37486;BME280;23341;50.296;18.960;2023-04-25T23:01:45;50000.25;;;-144.43;81.37
37486;BME280;23341;50.296;18.960;2023-04-25T23:06:51;50028.22;;;-144.43;81.51
37486;BME280;23341;50.296;18.960;2023-04-25T23:11:56;50024.22;;;-144.43;82.98
37486;BME280;23341;50.296;18.960;2023-04-25T23:17:01;50002.25;;;-144.43;83.96
37486;BME280;23341;50.296;18.960;2023-04-25T23:22:07;50018.22;;;-144.43;83.62
37486;BME280;23341;50.296;18.960;2023-04-25T23:27:12;50018.22;;;-144.43;84.17
37486;BME280;23341;50.296;18.960;2023-04-25T23:32:16;50026.22;;;-144.43;83.61
37486;BME280;23341;50.296;18.960;2023-04-25T23:37:22;50060.22;;;-144.43;82.19
37486;BME280;23341;50.296;18.960;2023-04-25T23:42:29;50038.22;;;-144.43;82.39
37486;BME280;23341;50.296;18.960;2023-04-25T23:47:33;50062.22;;;-144.43;81.32
37486;BME280;23341;50.296;18.960;2023-04-25T23:52:40;50034.22;;;-144.43;80.77
37486;BME280;23341;50.296;18.960;2023-04-25T23:57:45;49954.25;;;-144.43;79.48
